sensor_id;sensor_type;location;lat;lon;timestamp;pressure;altitude;pressure_sealevel;temperature;humidity
77450;BME280;66536;53.150;18.172;2024-01-30T00:01:54;102872.09;;;-1.19;92.20
77450;BME280;66536;53.150;18.172;2024-01-30T00:04:21;102873.23;;;-1.18;92.38
77450;BME280;66536;53.150;18.172;2024-01-30T00:06:48;102870.74;;;-1.18;92.11
77450;BME280;66536;53.150;18.172;2024-01-30T00:09:15;102876.38;;;-1.20;92.01
77450;BME280;66536;53.150;18.172;2024-01-30T00:11:41;102872.50;;;-1.20;92.17
77450;BME280;66536;53.150;18.172;2024-01-30T00:14:09;102870.63;;;-1.20;92.43
77450;BME280;66536;53.150;18.172;2024-01-30T00:16:36;102865.20;;;-1.19;92.26
77450;BME280;66536;53.150;18.172;2024-01-30T00:19:03;102862.83;;;-1.19;92.32
77450;BME280;66536;53.150;18.172;2024-01-30T00:21:30;102862.02;;;-1.20;92.04
77450;BME280;66536;53.150;18.172;2024-01-30T00:23:56;102864.08;;;-1.24;91.94
77450;BME280;66536;53.150;18.172;2024-01-30T00:26:23;102868.73;;;-1.29;92.00
77450;BME280;66536;53.150;18.172;2024-01-30T00:28:50;102865.90;;;-1.30;92.25
77450;BME280;66536;53.150;18.172;2024-01-30T00:31:17;102863.06;;;-1.31;92.37
77450;BME280;66536;53.150;18.172;2024-01-30T00:33:43;102863.11;;;-1.32;92.31
77450;BME280;66536;53.150;18.172;2024-01-30T00:36:10;102858.77;;;-1.33;92.24
77450;BME280;66536;53.150;18.172;2024-01-30T00:38:37;102860.89;;;-1.35;92.20
77450;BME280;66536;53.150;18.172;2024-01-30T00:41:04;102861.96;;;-1.36;92.25
77450;BME280;66536;53.150;18.172;2024-01-30T00:43:31;102856.66;;;-1.38;92.29
77450;BME280;66536;53.150;18.172;2024-01-30T00:45:58;102853.48;;;-1.39;92.29
77450;BME280;66536;53.150;18.172;2024-01-30T00:48:25;102849.23;;;-1.39;92.48
77450;BME280;66536;53.150;18.172;2024-01-30T00:50:52;102847.69;;;-1.38;92.37
77450;BME280;66536;53.150;18.172;2024-01-30T00:53:19;102843.52;;;-1.40;92.26
77450;BME280;66536;53.150;18.172;2024-01-30T00:55:46;102849.15;;;-1.40;92.17
77450;BME280;66536;53.150;18.172;2024-01-30T00:58:12;102848.23;;;-1.42;92.28
77450;BME280;66536;53.150;18.172;2024-01-30T01:00:39;102850.80;;;-1.43;92.39
77450;BME280;66536;53.150;18.172;2024-01-30T01:03:06;102848.27;;;-1.43;92.33
77450;BME280;66536;53.150;18.172;2024-01-30T01:05:33;102851.02;;;-1.44;92.17
77450;BME280;66536;53.150;18.172;2024-01-30T01:08:00;102850.67;;;-1.44;92.24
77450;BME280;66536;53.150;18.172;2024-01-30T01:10:26;102854.34;;;-1.46;92.16
77450;BME280;66536;53.150;18.172;2024-01-30T01:12:54;102848.52;;;-1.48;92.23
77450;BME280;66536;53.150;18.172;2024-01-30T01:15:21;102847.89;;;-1.49;92.36
77450;BME280;66536;53.150;18.172;2024-01-30T01:17:48;102843.19;;;-1.50;92.49
77450;BME280;66536;53.150;18.172;2024-01-30T01:20:15;102842.58;;;-1.51;92.55
77450;BME280;66536;53.150;18.172;2024-01-30T01:22:42;102844.09;;;-1.54;92.21
77450;BME280;66536;53.150;18.172;2024-01-30T01:25:09;102842.21;;;-1.57;92.35
77450;BME280;66536;53.150;18.172;2024-01-30T01:27:37;102840.27;;;-1.59;92.41
77450;BME280;66536;53.150;18.172;2024-01-30T01:30:09;102836.81;;;-1.61;92.53
77450;BME280;66536;53.150;18.172;2024-01-30T01:32:37;102836.70;;;-1.62;92.66
77450;BME280;66536;53.150;18.172;2024-01-30T01:35:04;102839.61;;;-1.63;92.52
77450;BME280;66536;53.150;18.172;2024-01-30T01:37:32;102836.43;;;-1.64;92.75
77450;BME280;66536;53.150;18.172;2024-01-30T01:40:00;102831.21;;;-1.64;92.73
77450;BME280;66536;53.150;18.172;2024-01-30T01:42:26;102835.83;;;-1.65;92.73
77450;BME280;66536;53.150;18.172;2024-01-30T01:44:53;102838.11;;;-1.67;92.46
77450;BME280;66536;53.150;18.172;2024-01-30T01:47:20;102836.94;;;-1.70;92.64
77450;BME280;66536;53.150;18.172;2024-01-30T01:49:47;102837.18;;;-1.72;92.74
77450;BME280;66536;53.150;18.172;2024-01-30T01:52:14;102841.02;;;-1.74;92.70
77450;BME280;66536;53.150;18.172;2024-01-30T01:54:41;102842.38;;;-1.78;92.57
77450;BME280;66536;53.150;18.172;2024-01-30T01:57:08;102842.11;;;-1.83;92.61
77450;BME280;66536;53.150;18.172;2024-01-30T01:59:35;102840.38;;;-1.85;92.88
77450;BME280;66536;53.150;18.172;2024-01-30T02:02:02;102835.33;;;-1.86;93.38
77450;BME280;66536;53.150;18.172;2024-01-30T02:04:30;102835.09;;;-1.84;93.60
77450;BME280;66536;53.150;18.172;2024-01-30T02:06:59;102836.73;;;-1.83;93.63
77450;BME280;66536;53.150;18.172;2024-01-30T02:09:26;102841.58;;;-1.82;93.50
77450;BME280;66536;53.150;18.172;2024-01-30T02:11:53;102841.00;;;-1.81;93.27
77450;BME280;66536;53.150;18.172;2024-01-30T02:14:21;102839.41;;;-1.79;93.23
77450;BME280;66536;53.150;18.172;2024-01-30T02:16:47;102835.98;;;-1.78;92.95
77450;BME280;66536;53.150;18.172;2024-01-30T02:19:14;102833.82;;;-1.79;92.83
77450;BME280;66536;53.150;18.172;2024-01-30T02:21:41;102830.77;;;-1.79;92.87
77450;BME280;66536;53.150;18.172;2024-01-30T02:24:08;102831.34;;;-1.80;92.69
77450;BME280;66536;53.150;18.172;2024-01-30T02:26:35;102835.41;;;-1.80;92.72
77450;BME280;66536;53.150;18.172;2024-01-30T02:29:01;102833.71;;;-1.80;92.71
77450;BME280;66536;53.150;18.172;2024-01-30T02:31:28;102836.27;;;-1.80;92.67
77450;BME280;66536;53.150;18.172;2024-01-30T02:33:55;102839.94;;;-1.80;92.69
77450;BME280;66536;53.150;18.172;2024-01-30T02:36:21;102835.91;;;-1.80;92.60
77450;BME280;66536;53.150;18.172;2024-01-30T02:38:48;102835.27;;;-1.81;92.56
77450;BME280;66536;53.150;18.172;2024-01-30T02:41:15;102829.82;;;-1.84;92.45
77450;BME280;66536;53.150;18.172;2024-01-30T02:43:42;102829.89;;;-1.85;92.46
77450;BME280;66536;53.150;18.172;2024-01-30T02:46:08;102829.83;;;-1.87;92.55
77450;BME280;66536;53.150;18.172;2024-01-30T02:48:35;102830.48;;;-1.87;92.82
77450;BME280;66536;53.150;18.172;2024-01-30T02:51:02;102830.90;;;-1.85;92.85
77450;BME280;66536;53.150;18.172;2024-01-30T02:53:29;102828.75;;;-1.83;93.01
77450;BME280;66536;53.150;18.172;2024-01-30T02:55:56;102825.56;;;-1.80;93.00
77450;BME280;66536;53.150;18.172;2024-01-30T02:58:23;102831.21;;;-1.78;92.88
77450;BME280;66536;53.150;18.172;2024-01-30T03:00:50;102827.25;;;-1.76;92.54
77450;BME280;66536;53.150;18.172;2024-01-30T03:03:16;102825.35;;;-1.75;92.49
77450;BME280;66536;53.150;18.172;2024-01-30T03:05:43;102825.30;;;-1.75;92.55
77450;BME280;66536;53.150;18.172;2024-01-30T03:08:10;102821.61;;;-1.75;92.40
77450;BME280;66536;53.150;18.172;2024-01-30T03:10:37;102819.92;;;-1.75;92.44
77450;BME280;66536;53.150;18.172;2024-01-30T03:13:04;102820.40;;;-1.75;92.32
77450;BME280;66536;53.150;18.172;2024-01-30T03:15:30;102818.69;;;-1.74;92.39
77450;BME280;66536;53.150;18.172;2024-01-30T03:17:57;102825.06;;;-1.73;92.54
77450;BME280;66536;53.150;18.172;2024-01-30T03:20:24;102824.55;;;-1.73;92.47
77450;BME280;66536;53.150;18.172;2024-01-30T03:22:51;102827.91;;;-1.73;92.60
77450;BME280;66536;53.150;18.172;2024-01-30T03:25:17;102827.80;;;-1.71;92.65
77450;BME280;66536;53.150;18.172;2024-01-30T03:27:44;102829.41;;;-1.68;92.63
77450;BME280;66536;53.150;18.172;2024-01-30T03:30:11;102828.76;;;-1.66;92.67
77450;BME280;66536;53.150;18.172;2024-01-30T03:32:38;102827.45;;;-1.63;92.66
77450;BME280;66536;53.150;18.172;2024-01-30T03:35:05;102823.16;;;-1.59;92.76
77450;BME280;66536;53.150;18.172;2024-01-30T03:37:32;102827.67;;;-1.54;92.77
77450;BME280;66536;53.150;18.172;2024-01-30T03:39:59;102823.20;;;-1.49;92.77
77450;BME280;66536;53.150;18.172;2024-01-30T03:42:26;102819.81;;;-1.46;92.73
77450;BME280;66536;53.150;18.172;2024-01-30T03:44:52;102815.13;;;-1.44;92.76
77450;BME280;66536;53.150;18.172;2024-01-30T03:47:20;102813.98;;;-1.42;92.88
77450;BME280;66536;53.150;18.172;2024-01-30T03:49:47;102815.38;;;-1.39;92.78
77450;BME280;66536;53.150;18.172;2024-01-30T03:52:14;102814.20;;;-1.39;92.54
77450;BME280;66536;53.150;18.172;2024-01-30T03:54:41;102816.64;;;-1.40;92.49
77450;BME280;66536;53.150;18.172;2024-01-30T03:57:07;102813.73;;;-1.40;92.66
77450;BME280;66536;53.150;18.172;2024-01-30T03:59:35;102816.79;;;-1.40;92.82
77450;BME280;66536;53.150;18.172;2024-01-30T04:02:02;102815.61;;;-1.40;92.95
77450;BME280;66536;53.150;18.172;2024-01-30T04:04:29;102816.73;;;-1.38;93.09
77450;BME280;66536;53.150;18.172;2024-01-30T04:06:55;102820.10;;;-1.39;92.92
77450;BME280;66536;53.150;18.172;2024-01-30T04:09:22;102820.20;;;-1.40;92.89
77450;BME280;66536;53.150;18.172;2024-01-30T04:11:49;102818.65;;;-1.40;93.16
77450;BME280;66536;53.150;18.172;2024-01-30T04:14:16;102818.65;;;-1.40;93.09
77450;BME280;66536;53.150;18.172;2024-01-30T04:16:43;102817.45;;;-1.39;93.03
77450;BME280;66536;53.150;18.172;2024-01-30T04:19:10;102817.17;;;-1.41;92.91
77450;BME280;66536;53.150;18.172;2024-01-30T04:21:37;102819.44;;;-1.42;93.00
77450;BME280;66536;53.150;18.172;2024-01-30T04:24:04;102819.23;;;-1.44;92.98
77450;BME280;66536;53.150;18.172;2024-01-30T04:26:34;102818.64;;;-1.46;93.03
77450;BME280;66536;53.150;18.172;2024-01-30T04:29:01;102815.33;;;-1.48;93.19
77450;BME280;66536;53.150;18.172;2024-01-30T04:31:27;102815.66;;;-1.48;93.25
77450;BME280;66536;53.150;18.172;2024-01-30T04:33:54;102813.79;;;-1.47;93.40
77450;BME280;66536;53.150;18.172;2024-01-30T04:36:21;102812.13;;;-1.45;93.53
77450;BME280;66536;53.150;18.172;2024-01-30T04:38:47;102809.64;;;-1.42;93.57
77450;BME280;66536;53.150;18.172;2024-01-30T04:41:14;102810.11;;;-1.42;93.47
77450;BME280;66536;53.150;18.172;2024-01-30T04:43:41;102811.19;;;-1.43;93.26
77450;BME280;66536;53.150;18.172;2024-01-30T04:46:08;102816.50;;;-1.41;93.57
77450;BME280;66536;53.150;18.172;2024-01-30T04:48:34;102819.09;;;-1.39;93.51
77450;BME280;66536;53.150;18.172;2024-01-30T04:51:01;102816.23;;;-1.39;93.22
77450;BME280;66536;53.150;18.172;2024-01-30T04:53:30;102818.48;;;-1.40;93.25
77450;BME280;66536;53.150;18.172;2024-01-30T04:55:57;102823.63;;;-1.38;93.59
77450;BME280;66536;53.150;18.172;2024-01-30T04:58:24;102825.08;;;-1.36;93.37
77450;BME280;66536;53.150;18.172;2024-01-30T05:00:51;102827.38;;;-1.35;93.42
77450;BME280;66536;53.150;18.172;2024-01-30T05:03:19;102824.11;;;-1.34;93.42
77450;BME280;66536;53.150;18.172;2024-01-30T05:05:46;102826.20;;;-1.32;93.33
77450;BME280;66536;53.150;18.172;2024-01-30T05:08:13;102823.96;;;-1.31;93.32
77450;BME280;66536;53.150;18.172;2024-01-30T05:10:39;102819.98;;;-1.29;93.39
77450;BME280;66536;53.150;18.172;2024-01-30T05:13:06;102820.27;;;-1.28;93.22
77450;BME280;66536;53.150;18.172;2024-01-30T05:15:33;102816.30;;;-1.27;93.32
77450;BME280;66536;53.150;18.172;2024-01-30T05:18:00;102815.67;;;-1.25;93.40
77450;BME280;66536;53.150;18.172;2024-01-30T05:20:27;102812.80;;;-1.22;93.38
77450;BME280;66536;53.150;18.172;2024-01-30T05:22:55;102811.98;;;-1.19;93.49
77450;BME280;66536;53.150;18.172;2024-01-30T05:25:22;102810.31;;;-1.16;93.60
77450;BME280;66536;53.150;18.172;2024-01-30T05:27:50;102809.51;;;-1.13;93.34
77450;BME280;66536;53.150;18.172;2024-01-30T05:30:17;102811.61;;;-1.12;93.46
77450;BME280;66536;53.150;18.172;2024-01-30T05:32:44;102809.70;;;-1.11;93.34
77450;BME280;66536;53.150;18.172;2024-01-30T05:35:11;102814.45;;;-1.11;93.22
77450;BME280;66536;53.150;18.172;2024-01-30T05:37:38;102813.61;;;-1.11;93.08
77450;BME280;66536;53.150;18.172;2024-01-30T05:40:05;102816.65;;;-1.11;93.12
77450;BME280;66536;53.150;18.172;2024-01-30T05:42:33;102819.61;;;-1.13;93.01
77450;BME280;66536;53.150;18.172;2024-01-30T05:45:01;102820.65;;;-1.13;93.06
77450;BME280;66536;53.150;18.172;2024-01-30T05:47:28;102823.70;;;-1.13;93.32
77450;BME280;66536;53.150;18.172;2024-01-30T05:49:55;102823.05;;;-1.13;93.24
77450;BME280;66536;53.150;18.172;2024-01-30T05:52:21;102825.20;;;-1.12;93.35
77450;BME280;66536;53.150;18.172;2024-01-30T05:54:48;102829.88;;;-1.11;93.45
77450;BME280;66536;53.150;18.172;2024-01-30T05:57:15;102827.58;;;-1.09;93.42
77450;BME280;66536;53.150;18.172;2024-01-30T05:59:42;102829.91;;;-1.09;93.29
77450;BME280;66536;53.150;18.172;2024-01-30T06:02:10;102828.15;;;-1.07;93.20
77450;BME280;66536;53.150;18.172;2024-01-30T06:04:37;102826.95;;;-1.07;93.26
77450;BME280;66536;53.150;18.172;2024-01-30T06:07:04;102828.42;;;-1.06;93.26
77450;BME280;66536;53.150;18.172;2024-01-30T06:09:32;102826.73;;;-1.06;93.33
77450;BME280;66536;53.150;18.172;2024-01-30T06:11:59;102822.23;;;-1.04;93.46
77450;BME280;66536;53.150;18.172;2024-01-30T06:14:26;102819.05;;;-1.02;93.62
77450;BME280;66536;53.150;18.172;2024-01-30T06:16:53;102819.11;;;-1.00;93.64
77450;BME280;66536;53.150;18.172;2024-01-30T06:19:20;102818.19;;;-0.98;93.64
77450;BME280;66536;53.150;18.172;2024-01-30T06:21:46;102824.38;;;-0.96;93.61
77450;BME280;66536;53.150;18.172;2024-01-30T06:24:13;102830.91;;;-0.95;93.61
77450;BME280;66536;53.150;18.172;2024-01-30T06:26:40;102833.69;;;-0.93;93.76
77450;BME280;66536;53.150;18.172;2024-01-30T06:29:07;102830.35;;;-0.91;93.88
77450;BME280;66536;53.150;18.172;2024-01-30T06:31:43;102833.46;;;-0.88;93.60
77450;BME280;66536;53.150;18.172;2024-01-30T06:34:10;102828.73;;;-0.92;93.13
77450;BME280;66536;53.150;18.172;2024-01-30T06:36:38;102832.23;;;-0.98;93.07
77450;BME280;66536;53.150;18.172;2024-01-30T06:39:05;102833.16;;;-1.03;93.14
77450;BME280;66536;53.150;18.172;2024-01-30T06:41:32;102835.08;;;-1.04;93.28
77450;BME280;66536;53.150;18.172;2024-01-30T06:43:59;102830.44;;;-1.03;93.66
77450;BME280;66536;53.150;18.172;2024-01-30T06:46:25;102830.22;;;-0.98;94.08
77450;BME280;66536;53.150;18.172;2024-01-30T06:48:53;102831.39;;;-0.97;93.64
77450;BME280;66536;53.150;18.172;2024-01-30T06:51:20;102826.73;;;-0.96;93.62
77450;BME280;66536;53.150;18.172;2024-01-30T06:53:47;102827.56;;;-0.92;93.55
77450;BME280;66536;53.150;18.172;2024-01-30T06:56:15;102829.41;;;-0.89;93.53
77450;BME280;66536;53.150;18.172;2024-01-30T06:58:48;102834.10;;;-0.85;93.73
77450;BME280;66536;53.150;18.172;2024-01-30T07:01:15;102833.84;;;-0.80;93.65
77450;BME280;66536;53.150;18.172;2024-01-30T07:03:42;102832.81;;;-0.76;93.55
77450;BME280;66536;53.150;18.172;2024-01-30T07:06:10;102833.80;;;-0.73;93.46
77450;BME280;66536;53.150;18.172;2024-01-30T07:08:38;102835.95;;;-0.68;93.56
77450;BME280;66536;53.150;18.172;2024-01-30T07:11:06;102834.69;;;-0.64;93.36
77450;BME280;66536;53.150;18.172;2024-01-30T07:13:34;102835.03;;;-0.58;93.50
77450;BME280;66536;53.150;18.172;2024-01-30T07:16:01;102840.27;;;-0.51;93.37
77450;BME280;66536;53.150;18.172;2024-01-30T07:18:29;102841.86;;;-0.46;93.33
77450;BME280;66536;53.150;18.172;2024-01-30T07:20:56;102839.38;;;-0.41;93.19
77450;BME280;66536;53.150;18.172;2024-01-30T07:23:23;102839.39;;;-0.35;93.12
77450;BME280;66536;53.150;18.172;2024-01-30T07:25:50;102837.43;;;-0.30;93.07
77450;BME280;66536;53.150;18.172;2024-01-30T07:28:16;102837.07;;;-0.24;93.18
77450;BME280;66536;53.150;18.172;2024-01-30T07:30:43;102837.38;;;-0.17;93.19
77450;BME280;66536;53.150;18.172;2024-01-30T07:33:10;102839.34;;;-0.10;93.08
77450;BME280;66536;53.150;18.172;2024-01-30T07:35:38;102840.66;;;-0.03;93.04
77450;BME280;66536;53.150;18.172;2024-01-30T07:38:05;102836.11;;;0.02;92.76
77450;BME280;66536;53.150;18.172;2024-01-30T07:40:31;102837.31;;;0.08;92.63
77450;BME280;66536;53.150;18.172;2024-01-30T07:42:59;102833.77;;;0.17;92.81
77450;BME280;66536;53.150;18.172;2024-01-30T07:45:27;102835.33;;;0.22;92.53
77450;BME280;66536;53.150;18.172;2024-01-30T07:47:59;102833.68;;;0.30;92.54
77450;BME280;66536;53.150;18.172;2024-01-30T07:50:27;102833.05;;;0.38;92.35
77450;BME280;66536;53.150;18.172;2024-01-30T07:52:56;102836.09;;;0.47;92.36
77450;BME280;66536;53.150;18.172;2024-01-30T07:55:24;102832.71;;;0.56;92.33
77450;BME280;66536;53.150;18.172;2024-01-30T07:57:54;102834.48;;;0.66;92.22
77450;BME280;66536;53.150;18.172;2024-01-30T08:00:22;102834.84;;;0.77;92.21
77450;BME280;66536;53.150;18.172;2024-01-30T08:02:52;102834.78;;;0.86;91.95
77450;BME280;66536;53.150;18.172;2024-01-30T08:05:22;102834.26;;;0.95;91.72
77450;BME280;66536;53.150;18.172;2024-01-30T08:07:50;102840.40;;;1.03;91.55
77450;BME280;66536;53.150;18.172;2024-01-30T08:10:17;102841.46;;;1.11;91.50
77450;BME280;66536;53.150;18.172;2024-01-30T08:12:45;102843.60;;;1.21;91.36
77450;BME280;66536;53.150;18.172;2024-01-30T08:15:12;102846.98;;;1.29;91.13
77450;BME280;66536;53.150;18.172;2024-01-30T08:17:39;102845.75;;;1.38;91.07
77450;BME280;66536;53.150;18.172;2024-01-30T08:20:07;102846.67;;;1.48;91.28
77450;BME280;66536;53.150;18.172;2024-01-30T08:22:34;102843.24;;;1.56;90.98
77450;BME280;66536;53.150;18.172;2024-01-30T08:25:01;102847.30;;;1.65;90.72
77450;BME280;66536;53.150;18.172;2024-01-30T08:27:28;102846.78;;;1.73;90.76
77450;BME280;66536;53.150;18.172;2024-01-30T08:29:55;102845.83;;;1.83;90.73
77450;BME280;66536;53.150;18.172;2024-01-30T08:32:22;102841.64;;;1.92;90.34
77450;BME280;66536;53.150;18.172;2024-01-30T08:34:51;102837.59;;;2.02;90.41
77450;BME280;66536;53.150;18.172;2024-01-30T08:37:17;102837.53;;;2.11;89.96
77450;BME280;66536;53.150;18.172;2024-01-30T08:39:44;102834.70;;;2.20;89.59
77450;BME280;66536;53.150;18.172;2024-01-30T08:42:14;102833.78;;;2.29;89.50
77450;BME280;66536;53.150;18.172;2024-01-30T08:44:40;102836.08;;;2.41;89.52
77450;BME280;66536;53.150;18.172;2024-01-30T08:47:07;102830.34;;;2.50;89.06
77450;BME280;66536;53.150;18.172;2024-01-30T08:49:34;102835.48;;;2.60;88.78
77450;BME280;66536;53.150;18.172;2024-01-30T08:52:01;102834.05;;;2.68;88.55
77450;BME280;66536;53.150;18.172;2024-01-30T08:54:28;102837.89;;;2.77;88.56
77450;BME280;66536;53.150;18.172;2024-01-30T08:56:55;102833.45;;;2.87;88.54
77450;BME280;66536;53.150;18.172;2024-01-30T08:59:23;102836.28;;;2.98;88.27
77450;BME280;66536;53.150;18.172;2024-01-30T09:01:49;102832.42;;;3.09;88.17
77450;BME280;66536;53.150;18.172;2024-01-30T09:04:20;102832.63;;;3.19;87.74
77450;BME280;66536;53.150;18.172;2024-01-30T09:06:48;102829.66;;;3.30;87.88
77450;BME280;66536;53.150;18.172;2024-01-30T09:09:16;102828.10;;;3.44;87.87
77450;BME280;66536;53.150;18.172;2024-01-30T09:11:44;102822.20;;;3.58;87.58
77450;BME280;66536;53.150;18.172;2024-01-30T09:14:10;102821.91;;;3.71;87.32
77450;BME280;66536;53.150;18.172;2024-01-30T09:16:38;102820.52;;;3.79;86.76
77450;BME280;66536;53.150;18.172;2024-01-30T09:19:05;102814.75;;;3.85;86.51
77450;BME280;66536;53.150;18.172;2024-01-30T09:21:32;102810.81;;;3.92;86.28
77450;BME280;66536;53.150;18.172;2024-01-30T09:24:02;102811.49;;;3.99;86.06
77450;BME280;66536;53.150;18.172;2024-01-30T09:26:31;102812.66;;;4.07;85.76
77450;BME280;66536;53.150;18.172;2024-01-30T09:28:58;102812.27;;;4.14;85.59
77450;BME280;66536;53.150;18.172;2024-01-30T09:31:25;102810.29;;;4.23;85.48
77450;BME280;66536;53.150;18.172;2024-01-30T09:33:52;102805.27;;;4.32;85.23
77450;BME280;66536;53.150;18.172;2024-01-30T09:36:20;102804.20;;;4.40;85.03
77450;BME280;66536;53.150;18.172;2024-01-30T09:38:47;102804.98;;;4.48;84.76
77450;BME280;66536;53.150;18.172;2024-01-30T09:41:15;102803.28;;;4.56;84.72
77450;BME280;66536;53.150;18.172;2024-01-30T09:43:47;102798.61;;;4.66;84.53
77450;BME280;66536;53.150;18.172;2024-01-30T09:46:17;102801.15;;;4.75;84.27
77450;BME280;66536;53.150;18.172;2024-01-30T09:48:48;102801.65;;;4.84;84.12
77450;BME280;66536;53.150;18.172;2024-01-30T09:51:17;102796.09;;;4.94;83.81
77450;BME280;66536;53.150;18.172;2024-01-30T09:53:44;102792.96;;;5.04;84.00
77450;BME280;66536;53.150;18.172;2024-01-30T09:56:12;102791.45;;;5.14;83.89
77450;BME280;66536;53.150;18.172;2024-01-30T09:58:39;102788.58;;;5.22;83.16
77450;BME280;66536;53.150;18.172;2024-01-30T10:01:06;102786.06;;;5.31;82.93
77450;BME280;66536;53.150;18.172;2024-01-30T10:03:33;102786.17;;;5.40;82.56
77450;BME280;66536;53.150;18.172;2024-01-30T10:06:01;102780.30;;;5.49;82.14
77450;BME280;66536;53.150;18.172;2024-01-30T10:08:32;102778.02;;;5.58;81.73
77450;BME280;66536;53.150;18.172;2024-01-30T10:11:00;102778.08;;;5.66;81.09
77450;BME280;66536;53.150;18.172;2024-01-30T10:13:28;102771.14;;;5.73;80.83
77450;BME280;66536;53.150;18.172;2024-01-30T10:15:56;102770.48;;;5.79;80.51
77450;BME280;66536;53.150;18.172;2024-01-30T10:18:24;102765.86;;;5.88;80.44
77450;BME280;66536;53.150;18.172;2024-01-30T10:20:51;102762.22;;;5.96;80.19
77450;BME280;66536;53.150;18.172;2024-01-30T10:23:18;102757.06;;;6.05;79.87
77450;BME280;66536;53.150;18.172;2024-01-30T10:25:46;102754.17;;;6.13;79.39
77450;BME280;66536;53.150;18.172;2024-01-30T10:28:13;102750.52;;;6.20;79.05
77450;BME280;66536;53.150;18.172;2024-01-30T10:30:40;102750.61;;;6.27;78.86
77450;BME280;66536;53.150;18.172;2024-01-30T10:33:07;102755.60;;;6.33;78.72
77450;BME280;66536;53.150;18.172;2024-01-30T10:35:35;102751.92;;;6.40;78.54
77450;BME280;66536;53.150;18.172;2024-01-30T10:38:03;102752.67;;;6.47;78.33
77450;BME280;66536;53.150;18.172;2024-01-30T10:40:33;102753.35;;;6.55;78.35
77450;BME280;66536;53.150;18.172;2024-01-30T10:43:03;102745.06;;;6.61;78.11
77450;BME280;66536;53.150;18.172;2024-01-30T10:45:31;102748.10;;;6.68;77.86
77450;BME280;66536;53.150;18.172;2024-01-30T10:47:59;102745.46;;;6.75;77.43
77450;BME280;66536;53.150;18.172;2024-01-30T10:50:27;102749.04;;;6.83;77.40
77450;BME280;66536;53.150;18.172;2024-01-30T10:52:55;102746.14;;;6.91;76.90
77450;BME280;66536;53.150;18.172;2024-01-30T10:55:24;102748.36;;;7.01;76.71
77450;BME280;66536;53.150;18.172;2024-01-30T10:57:52;102748.22;;;7.12;76.66
77450;BME280;66536;53.150;18.172;2024-01-30T11:00:21;102743.69;;;7.25;76.33
77450;BME280;66536;53.150;18.172;2024-01-30T11:02:52;102742.27;;;7.37;76.23
